Time;durP1;ratioP1;P1;durP2;ratioP2;P2;SDS_P1;SDS_P2;PMS_P1;PMS_P2;Temp;Humidity;BMP_temperature;BMP_pressure;BME280_temperature;BME280_humidity;BME280_pressure;Samples;Min_cycle;Max_cycle;Signal;HPM_P1;HPM_P2
2021/12/29 00:01:22;;;;;;;1.10;0.98;;;;;;;;;;4182040;28;20041;-36
2021/12/29 00:03:23;;;;;;;1.02;0.70;;;;;;;;;;4181864;28;20076;-36
2021/12/29 00:05:24;;;;;;;1.25;0.77;;;;;;;;;;4181946;28;20049;-35
2021/12/29 00:07:25;;;;;;;1.17;0.80;;;;;;;;;;4181699;28;20048;-35
2021/12/29 00:09:27;;;;;;;1.17;1.08;;;;;;;;;;4164327;28;20065;-36
2021/12/29 00:11:28;;;;;;;2.00;1.10;;;;;;;;;;4181798;28;20056;-35
2021/12/29 00:13:30;;;;;;;1.33;1.15;;;;;;;;;;4181838;28;20087;-36
2021/12/29 00:15:31;;;;;;;1.05;0.95;;;;;;;;;;4147716;28;20116;-35
2021/12/29 00:17:32;;;;;;;1.40;0.80;;;;;;;;;;4181071;28;20053;-35
2021/12/29 00:19:33;;;;;;;1.55;1.17;;;;;;;;;;4181907;28;20111;-36
2021/12/29 00:21:34;;;;;;;1.23;0.95;;;;;;;;;;4181909;28;20534;-35
2021/12/29 00:23:36;;;;;;;1.10;1.00;;;;;;;;;;4187464;28;20060;-35
2021/12/29 00:25:37;;;;;;;0.95;0.85;;;;;;;;;;4198249;28;20049;-35
2021/12/29 00:27:38;;;;;;;1.05;0.80;;;;;;;;;;4198372;28;20102;-35
2021/12/29 00:29:39;;;;;;;0.70;0.70;;;;;;;;;;4163835;28;20049;-35
2021/12/29 00:31:58;;;;;;;1.25;1.00;;;;;;;;;;4198244;28;20052;-35
2021/12/29 00:34:19;;;;;;;1.23;0.98;;;;;;;;;;4198418;28;20056;-35
2021/12/29 00:36:38;;;;;;;1.70;1.10;;;;;;;;;;4197761;28;20189;-35
2021/12/29 00:38:58;;;;;;;0.95;0.75;;;;;;;;;;4197881;28;20545;-36
2021/12/29 00:41:37;;;;;;;1.17;0.93;;;;;;;;;;4130549;28;20108;-36
2021/12/29 00:43:57;;;;;;;1.58;1.17;;;;;;;;;;4130488;28;20061;-35
2021/12/29 00:46:17;;;;;;;1.05;0.90;;;;;;;;;;4146885;28;20109;-34
2021/12/29 00:48:19;;;;;;;1.10;1.00;;;;;;;;;;4197948;28;20060;-34
2021/12/29 00:50:20;;;;;;;1.33;1.10;;;;;;;;;;4197966;28;20098;-35
2021/12/29 00:52:21;;;;;;;1.25;0.90;;;;;;;;;;4197138;28;20040;-35
2021/12/29 00:54:22;;;;;;;1.38;1.08;;;;;;;;;;4197994;28;20044;-35
2021/12/29 00:56:24;;;;;;;2.20;1.08;;;;;;;;;;4179960;28;20467;-34
2021/12/29 00:58:25;;;;;;;0.98;0.90;;;;;;;;;;4197391;28;20400;-36
2021/12/29 01:00:26;;;;;;;1.13;0.82;;;;;;;;;;4179921;28;20075;-35
2021/12/29 01:02:27;;;;;;;1.45;1.00;;;;;;;;;;4197379;28;20053;-36
2021/12/29 01:04:28;;;;;;;2.05;1.20;;;;;;;;;;4197490;28;20475;-35
2021/12/29 01:06:29;;;;;;;0.95;0.85;;;;;;;;;;4197763;28;20052;-36
2021/12/29 01:08:30;;;;;;;1.25;0.90;;;;;;;;;;4179164;28;20099;-36
2021/12/29 01:10:32;;;;;;;0.73;0.73;;;;;;;;;;4197443;28;20048;-35
2021/12/29 01:12:33;;;;;;;1.45;0.90;;;;;;;;;;4197458;28;20055;-36
2021/12/29 01:14:34;;;;;;;1.23;1.00;;;;;;;;;;4197666;28;20352;-36
2021/12/29 01:18:37;;;;;;;1.10;0.98;;;;;;;;;;4197233;28;20049;-34
2021/12/29 01:20:38;;;;;;;1.90;1.10;;;;;;;;;;4197306;28;20546;-34
2021/12/29 01:22:39;;;;;;;1.02;0.90;;;;;;;;;;4196829;28;20060;-34
2021/12/29 01:24:40;;;;;;;1.05;0.70;;;;;;;;;;4197132;28;20087;-34
2021/12/29 01:26:43;;;;;;;1.17;0.90;;;;;;;;;;4197067;28;20048;-34
2021/12/29 01:28:44;;;;;;;1.23;1.00;;;;;;;;;;4196923;28;20052;-34
2021/12/29 01:30:46;;;;;;;1.88;0.93;;;;;;;;;;4197209;28;20102;-34
2021/12/29 01:32:47;;;;;;;1.42;1.20;;;;;;;;;;4197096;28;20419;-36
2021/12/29 01:34:48;;;;;;;0.95;0.85;;;;;;;;;;4197215;28;20056;-34
2021/12/29 01:36:49;;;;;;;1.60;1.23;;;;;;;;;;4196576;28;20101;-34
2021/12/29 01:38:50;;;;;;;1.63;1.13;;;;;;;;;;4179154;28;20515;-34
2021/12/29 01:40:51;;;;;;;1.33;1.10;;;;;;;;;;4197075;28;20080;-34
2021/12/29 01:42:52;;;;;;;1.58;1.00;;;;;;;;;;4197187;28;20048;-35
2021/12/29 01:44:53;;;;;;;0.98;0.80;;;;;;;;;;4197155;28;20082;-34
2021/12/29 01:46:55;;;;;;;1.73;1.05;;;;;;;;;;4196832;28;20435;-34
2021/12/29 01:48:56;;;;;;;1.15;1.05;;;;;;;;;;4179325;28;20049;-35
2021/12/29 01:50:59;;;;;;;0.93;0.80;;;;;;;;;;4196920;28;20060;-44
2021/12/29 01:53:07;;;;;;;1.33;1.10;;;;;;;;;;4196517;28;20052;-33
2021/12/29 01:55:15;;;;;;;1.58;1.08;;;;;;;;;;4197023;28;20044;-34
2021/12/29 01:57:16;;;;;;;1.50;1.02;;;;;;;;;;4196866;28;20044;-34
2021/12/29 01:59:17;;;;;;;0.93;0.85;;;;;;;;;;4196920;28;20049;-34
2021/12/29 02:01:18;;;;;;;1.55;1.10;;;;;;;;;;4196918;28;20481;-34
2021/12/29 02:03:19;;;;;;;1.00;0.90;;;;;;;;;;4197088;28;20102;-34
2021/12/29 02:05:20;;;;;;;1.65;0.90;;;;;;;;;;4196865;28;20053;-34
2021/12/29 02:07:21;;;;;;;1.33;0.82;;;;;;;;;;4189446;28;20382;-34
2021/12/29 02:09:22;;;;;;;1.38;1.10;;;;;;;;;;4162657;28;20046;-35
2021/12/29 02:11:29;;;;;;;1.17;1.00;;;;;;;;;;4180571;28;20061;-34
2021/12/29 02:13:30;;;;;;;0.98;0.85;;;;;;;;;;4180331;28;20519;-34
2021/12/29 02:15:31;;;;;;;1.15;1.05;;;;;;;;;;4180328;28;20049;-34
2021/12/29 02:17:32;;;;;;;1.42;1.10;;;;;;;;;;4180130;28;20056;-34
2021/12/29 02:19:33;;;;;;;1.05;0.90;;;;;;;;;;4179070;28;20049;-34
2021/12/29 02:21:35;;;;;;;1.42;1.08;;;;;;;;;;4189129;28;20056;-34
2021/12/29 02:23:47;;;;;;;2.25;0.90;;;;;;;;;;4202540;28;20524;-35
2021/12/29 02:25:52;;;;;;;2.08;1.42;;;;;;;;;;4213670;28;20044;-34
2021/12/29 02:27:54;;;;;;;1.40;1.17;;;;;;;;;;4213422;28;20472;-35
2021/12/29 02:29:54;;;;;;;1.35;1.10;;;;;;;;;;4213700;28;20048;-35
2021/12/29 02:31:55;;;;;;;1.35;1.25;;;;;;;;;;4213313;28;20044;-34
2021/12/29 02:33:57;;;;;;;1.58;1.17;;;;;;;;;;4213325;28;20475;-36
2021/12/29 02:36:00;;;;;;;1.15;0.85;;;;;;;;;;4213554;28;20048;-34
2021/12/29 02:38:03;;;;;;;1.08;0.98;;;;;;;;;;4212791;28;20392;-34
2021/12/29 02:40:06;;;;;;;1.92;1.25;;;;;;;;;;4213875;28;20056;-33
2021/12/29 02:42:07;;;;;;;0.90;0.80;;;;;;;;;;4216543;28;20373;-34
2021/12/29 02:44:14;;;;;;;1.40;1.00;;;;;;;;;;4216840;28;20052;-34
2021/12/29 02:46:16;;;;;;;1.55;1.10;;;;;;;;;;4216577;28;20105;-35
2021/12/29 02:48:18;;;;;;;1.33;0.90;;;;;;;;;;4216553;28;20052;-35
2021/12/29 02:50:19;;;;;;;1.17;0.90;;;;;;;;;;4216040;28;20117;-35
2021/12/29 02:52:20;;;;;;;1.08;0.88;;;;;;;;;;4216101;28;20056;-34
2021/12/29 02:54:21;;;;;;;1.30;0.93;;;;;;;;;;4216294;28;20059;-34
2021/12/29 02:56:22;;;;;;;0.90;0.82;;;;;;;;;;4198376;28;20176;-35
2021/12/29 02:58:24;;;;;;;1.63;1.27;;;;;;;;;;4216255;28;20380;-34
2021/12/29 03:00:25;;;;;;;1.50;1.02;;;;;;;;;;4216319;28;20048;-34
2021/12/29 03:02:26;;;;;;;1.40;1.10;;;;;;;;;;4198249;28;20082;-34
2021/12/29 03:04:27;;;;;;;1.33;0.85;;;;;;;;;;4216451;28;20153;-34
2021/12/29 03:06:27;;;;;;;1.52;1.20;;;;;;;;;;4216486;28;20108;-34
2021/12/29 03:08:28;;;;;;;1.30;0.90;;;;;;;;;;4215936;28;20099;-34
2021/12/29 03:10:29;;;;;;;1.52;1.10;;;;;;;;;;4216194;28;20052;-35
2021/12/29 03:12:31;;;;;;;1.55;1.20;;;;;;;;;;4216267;28;20060;-34
2021/12/29 03:14:32;;;;;;;1.05;0.95;;;;;;;;;;4216331;28;20083;-35
2021/12/29 03:16:33;;;;;;;1.25;1.10;;;;;;;;;;4216113;28;20089;-35
2021/12/29 03:18:35;;;;;;;1.17;0.80;;;;;;;;;;4215786;28;20048;-36
2021/12/29 03:20:36;;;;;;;1.30;1.10;;;;;;;;;;4215799;28;20344;-35
2021/12/29 03:22:37;;;;;;;1.55;1.13;;;;;;;;;;4215647;28;20052;-35
2021/12/29 03:24:38;;;;;;;1.08;0.95;;;;;;;;;;4197746;28;20381;-35
2021/12/29 03:26:39;;;;;;;1.23;1.08;;;;;;;;;;4215772;28;20094;-34
2021/12/29 03:28:40;;;;;;;1.10;1.00;;;;;;;;;;4215957;28;20441;-35
2021/12/29 03:30:43;;;;;;;1.42;1.08;;;;;;;;;;4215767;28;20176;-35
2021/12/29 03:32:51;;;;;;;1.52;1.17;;;;;;;;;;4215882;28;20052;-35
2021/12/29 03:34:51;;;;;;;1.08;0.80;;;;;;;;;;4215754;28;20396;-35
2021/12/29 03:36:52;;;;;;;1.15;1.00;;;;;;;;;;4215270;28;20095;-34
2021/12/29 03:38:53;;;;;;;1.55;1.25;;;;;;;;;;4215585;28;20130;-35
2021/12/29 03:40:56;;;;;;;1.30;1.00;;;;;;;;;;4215629;28;20059;-35
2021/12/29 03:42:57;;;;;;;1.40;1.10;;;;;;;;;;4215580;28;20498;-35
2021/12/29 03:44:58;;;;;;;1.33;1.08;;;;;;;;;;4215547;28;20472;-36
2021/12/29 03:46:59;;;;;;;1.33;1.10;;;;;;;;;;4215328;28;20052;-36
2021/12/29 03:49:00;;;;;;;1.13;1.00;;;;;;;;;;4215590;28;20103;-35
2021/12/29 03:51:02;;;;;;;1.13;1.02;;;;;;;;;;4197137;28;20052;-35
2021/12/29 03:53:03;;;;;;;1.50;1.25;;;;;;;;;;4196061;28;20084;-35
2021/12/29 03:55:05;;;;;;;1.20;1.10;;;;;;;;;;4215827;28;20060;-35
2021/12/29 03:57:06;;;;;;;1.30;1.20;;;;;;;;;;4215421;28;20048;-35
2021/12/29 03:59:07;;;;;;;1.52;1.25;;;;;;;;;;4215487;28;20098;-34
2021/12/29 04:01:10;;;;;;;1.75;1.50;;;;;;;;;;4215306;28;20044;-34
2021/12/29 04:03:11;;;;;;;1.27;1.00;;;;;;;;;;4215083;28;20101;-34
2021/12/29 04:05:13;;;;;;;1.65;1.20;;;;;;;;;;4215308;28;20453;-34
2021/12/29 04:07:14;;;;;;;1.25;1.15;;;;;;;;;;4214788;28;20048;-35
2021/12/29 04:09:15;;;;;;;1.38;1.17;;;;;;;;;;4215231;28;20089;-34
2021/12/29 04:11:18;;;;;;;1.75;1.17;;;;;;;;;;4215214;28;20329;-34
2021/12/29 04:13:19;;;;;;;1.40;1.00;;;;;;;;;;4215106;28;20060;-34
2021/12/29 04:15:21;;;;;;;2.05;1.17;;;;;;;;;;4215081;28;20052;-34
2021/12/29 04:17:29;;;;;;;1.35;1.00;;;;;;;;;;4215007;28;20052;-33
2021/12/29 04:19:40;;;;;;;1.23;0.90;;;;;;;;;;4215378;28;20067;-34
2021/12/29 04:21:43;;;;;;;1.08;0.90;;;;;;;;;;4214877;28;20044;-34
2021/12/29 04:23:44;;;;;;;1.48;1.00;;;;;;;;;;4214963;28;20105;-34
2021/12/29 04:25:50;;;;;;;1.00;0.80;;;;;;;;;;4215238;28;20044;-34
2021/12/29 04:27:52;;;;;;;1.30;1.02;;;;;;;;;;4215075;28;20044;-35
2021/12/29 04:29:53;;;;;;;1.95;1.20;;;;;;;;;;4214893;28;20094;-34
2021/12/29 04:31:54;;;;;;;1.23;1.05;;;;;;;;;;4197077;28;20056;-34
2021/12/29 04:33:55;;;;;;;1.42;1.20;;;;;;;;;;4214956;28;20047;-34
2021/12/29 04:35:56;;;;;;;1.52;1.15;;;;;;;;;;4214948;28;20395;-34
2021/12/29 04:37:57;;;;;;;1.10;1.00;;;;;;;;;;4214302;28;20048;-34
2021/12/29 04:39:57;;;;;;;1.08;0.90;;;;;;;;;;4214587;28;20069;-34
2021/12/29 04:41:58;;;;;;;0.85;0.85;;;;;;;;;;4214712;28;20099;-34
2021/12/29 04:43:59;;;;;;;1.20;1.10;;;;;;;;;;4215080;28;20313;-34
2021/12/29 04:46:00;;;;;;;1.42;1.13;;;;;;;;;;4214646;28;20087;-34
2021/12/29 04:48:01;;;;;;;1.58;1.27;;;;;;;;;;4214652;28;20391;-35
2021/12/29 04:50:03;;;;;;;1.73;1.20;;;;;;;;;;4214985;28;20100;-35
2021/12/29 04:52:04;;;;;;;1.60;1.23;;;;;;;;;;4214444;28;20105;-35
2021/12/29 04:54:06;;;;;;;1.30;1.20;;;;;;;;;;4214624;28;20145;-35
2021/12/29 04:56:07;;;;;;;1.20;0.90;;;;;;;;;;4214590;28;20476;-34
2021/12/29 04:58:08;;;;;;;1.42;1.17;;;;;;;;;;4214468;28;20048;-35
2021/12/29 05:00:09;;;;;;;1.35;1.20;;;;;;;;;;4214685;28;20058;-34
2021/12/29 05:02:10;;;;;;;1.23;1.13;;;;;;;;;;4196431;28;20131;-34
2021/12/29 05:04:19;;;;;;;1.90;1.33;;;;;;;;;;4214381;28;20501;-34
2021/12/29 05:08:40;;;;;;;;;;;;;;;;;;4214793;28;20048;-34
2021/12/29 05:10:41;;;;;;;1.42;1.25;;;;;;;;;;4214372;28;20011;-34
2021/12/29 05:12:42;;;;;;;2.15;1.23;;;;;;;;;;4214186;28;20047;-33
2021/12/29 05:14:43;;;;;;;1.63;1.20;;;;;;;;;;4214112;28;20131;-34
2021/12/29 05:16:44;;;;;;;1.42;1.10;;;;;;;;;;4214375;28;20080;-34
2021/12/29 05:18:45;;;;;;;1.65;1.20;;;;;;;;;;4214512;28;20139;-35
2021/12/29 05:20:46;;;;;;;1.67;1.30;;;;;;;;;;4195979;28;20056;-34
2021/12/29 05:22:47;;;;;;;1.15;1.00;;;;;;;;;;4195726;28;20095;-34
2021/12/29 05:24:48;;;;;;;1.52;1.23;;;;;;;;;;4195900;28;20087;-34
2021/12/29 05:26:50;;;;;;;1.73;1.30;;;;;;;;;;4213724;28;20426;-34
2021/12/29 05:28:51;;;;;;;1.90;1.58;;;;;;;;;;4214358;28;20043;-34
2021/12/29 05:30:52;;;;;;;1.83;1.40;;;;;;;;;;4195997;28;20077;-36
2021/12/29 05:32:54;;;;;;;1.55;1.40;;;;;;;;;;4213958;28;20044;-34
2021/12/29 05:34:55;;;;;;;1.60;1.50;;;;;;;;;;4214159;28;20063;-34
2021/12/29 05:36:55;;;;;;;2.00;1.73;;;;;;;;;;4213738;28;20522;-34
2021/12/29 05:38:57;;;;;;;2.00;1.80;;;;;;;;;;4214241;28;20536;-34
2021/12/29 05:40:58;;;;;;;1.98;1.70;;;;;;;;;;4213812;28;20484;-34
2021/12/29 05:42:59;;;;;;;2.38;2.17;;;;;;;;;;4213830;28;20054;-34
2021/12/29 05:45:04;;;;;;;2.47;2.03;;;;;;;;;;4213908;28;20096;-34
2021/12/29 05:47:05;;;;;;;2.42;2.00;;;;;;;;;;4213749;28;20048;-35
2021/12/29 05:49:06;;;;;;;2.67;2.28;;;;;;;;;;4214000;28;20097;-35
2021/12/29 05:51:07;;;;;;;2.38;2.17;;;;;;;;;;4195970;28;20107;-34
2021/12/29 05:53:08;;;;;;;2.55;2.35;;;;;;;;;;4213207;28;20129;-35
2021/12/29 05:55:10;;;;;;;4.07;2.80;;;;;;;;;;4213702;28;20518;-34
2021/12/29 05:57:10;;;;;;;3.05;2.38;;;;;;;;;;4213450;28;20052;-34
2021/12/29 05:59:11;;;;;;;2.30;2.00;;;;;;;;;;4213591;28;20098;-35
2021/12/29 06:01:12;;;;;;;3.17;2.72;;;;;;;;;;4213696;28;20105;-34
2021/12/29 06:03:14;;;;;;;2.95;2.38;;;;;;;;;;4213502;28;20093;-35
2021/12/29 06:05:15;;;;;;;3.38;3.03;;;;;;;;;;4213891;28;20185;-34
2021/12/29 06:07:16;;;;;;;2.90;2.60;;;;;;;;;;4213396;28;20048;-34
2021/12/29 06:09:17;;;;;;;3.15;2.63;;;;;;;;;;4213826;28;20510;-34
2021/12/29 06:11:18;;;;;;;2.70;2.35;;;;;;;;;;4213808;28;20108;-34
2021/12/29 06:13:19;;;;;;;2.50;2.30;;;;;;;;;;4213461;28;20380;-34
2021/12/29 06:15:20;;;;;;;4.88;2.80;;;;;;;;;;4214585;28;20060;-35
2021/12/29 06:17:21;;;;;;;3.63;3.10;;;;;;;;;;4217083;28;20051;-34
2021/12/29 06:19:22;;;;;;;3.13;2.53;;;;;;;;;;4217242;28;20047;-34
2021/12/29 06:21:23;;;;;;;3.00;2.70;;;;;;;;;;4198450;28;20056;-34
2021/12/29 06:23:24;;;;;;;3.50;2.70;;;;;;;;;;4216375;28;20055;-34
2021/12/29 06:25:29;;;;;;;4.47;2.92;;;;;;;;;;4216914;28;20048;-34
2021/12/29 06:27:31;;;;;;;2.50;2.30;;;;;;;;;;4198528;28;20052;-34
2021/12/29 06:29:32;;;;;;;3.83;2.92;;;;;;;;;;4217125;28;20052;-34
2021/12/29 06:31:33;;;;;;;3.20;2.80;;;;;;;;;;4216989;28;20194;-34
2021/12/29 06:33:34;;;;;;;2.95;2.65;;;;;;;;;;4217056;28;20147;-34
2021/12/29 06:35:35;;;;;;;3.10;2.60;;;;;;;;;;4217228;28;20110;-34
2021/12/29 06:37:36;;;;;;;2.72;2.40;;;;;;;;;;4216561;28;20488;-34
2021/12/29 06:39:38;;;;;;;3.08;2.85;;;;;;;;;;4216769;28;20051;-34
2021/12/29 06:41:40;;;;;;;3.78;3.03;;;;;;;;;;4216876;28;20052;-34
2021/12/29 06:43:41;;;;;;;3.85;3.00;;;;;;;;;;4216862;28;20055;-34
2021/12/29 06:45:42;;;;;;;4.07;2.65;;;;;;;;;;4216821;28;20052;-35
2021/12/29 06:47:43;;;;;;;2.65;2.42;;;;;;;;;;4216764;28;20094;-34
2021/12/29 06:49:44;;;;;;;3.22;2.90;;;;;;;;;;4216596;28;20051;-34
2021/12/29 06:51:45;;;;;;;3.17;2.88;;;;;;;;;;4216068;28;20078;-34
2021/12/29 06:53:46;;;;;;;3.53;2.75;;;;;;;;;;4217023;28;20044;-35
2021/12/29 06:55:47;;;;;;;3.33;3.03;;;;;;;;;;4216718;28;20167;-35
2021/12/29 06:57:48;;;;;;;3.58;2.60;;;;;;;;;;4216731;28;20052;-34
2021/12/29 06:59:49;;;;;;;2.72;2.47;;;;;;;;;;4216739;28;20087;-34
2021/12/29 07:01:49;;;;;;;3.05;2.75;;;;;;;;;;4216184;28;20095;-34
2021/12/29 07:03:50;;;;;;;3.55;2.92;;;;;;;;;;4198520;28;20105;-34
2021/12/29 07:05:54;;;;;;;2.80;2.60;;;;;;;;;;4198423;28;20142;-34
2021/12/29 07:07:56;;;;;;;3.13;2.53;;;;;;;;;;4215767;28;20059;-34
2021/12/29 07:09:57;;;;;;;3.85;2.83;;;;;;;;;;4216006;28;20056;-34
2021/12/29 07:11:58;;;;;;;3.42;2.97;;;;;;;;;;4216160;28;20102;-35
2021/12/29 07:14:02;;;;;;;3.00;2.70;;;;;;;;;;4216029;28;20609;-34
2021/12/29 07:16:04;;;;;;;3.85;3.10;;;;;;;;;;4198025;28;20056;-35
2021/12/29 07:18:05;;;;;;;2.92;2.60;;;;;;;;;;4215988;28;20439;-34
2021/12/29 07:20:06;;;;;;;2.53;2.33;;;;;;;;;;4216009;28;20047;-34
2021/12/29 07:22:07;;;;;;;2.70;2.50;;;;;;;;;;4197510;28;20516;-35
2021/12/29 07:24:08;;;;;;;2.90;2.60;;;;;;;;;;4215801;28;20056;-34
2021/12/29 07:26:09;;;;;;;2.42;2.22;;;;;;;;;;4215808;28;20093;-35
2021/12/29 07:28:10;;;;;;;3.80;2.80;;;;;;;;;;4216005;28;20125;-34
2021/12/29 07:30:11;;;;;;;3.10;2.80;;;;;;;;;;4216046;28;20054;-34
2021/12/29 07:32:12;;;;;;;2.92;2.63;;;;;;;;;;4215575;28;20105;-34
2021/12/29 07:34:13;;;;;;;2.80;2.50;;;;;;;;;;4215816;28;20459;-34
2021/12/29 07:36:14;;;;;;;3.15;2.58;;;;;;;;;;4215789;28;20097;-34
2021/12/29 07:38:15;;;;;;;2.72;2.28;;;;;;;;;;4215129;28;20113;-34
2021/12/29 07:40:17;;;;;;;2.30;2.10;;;;;;;;;;4215513;28;20044;-35
2021/12/29 07:42:18;;;;;;;2.47;2.20;;;;;;;;;;4215528;28;20334;-35
2021/12/29 07:44:19;;;;;;;2.88;2.58;;;;;;;;;;4215500;28;20052;-35
2021/12/29 07:46:20;;;;;;;2.90;2.60;;;;;;;;;;4215652;28;20093;-34
2021/12/29 07:48:27;;;;;;;2.65;2.17;;;;;;;;;;4197416;28;20072;-35
2021/12/29 07:50:28;;;;;;;3.13;2.70;;;;;;;;;;4215566;28;20047;-35
2021/12/29 07:52:29;;;;;;;2.70;2.42;;;;;;;;;;4215077;28;20145;-35
2021/12/29 07:54:30;;;;;;;2.42;2.22;;;;;;;;;;4215372;28;20055;-34
2021/12/29 07:56:31;;;;;;;2.55;2.25;;;;;;;;;;4215358;28;20098;-35
2021/12/29 07:58:35;;;;;;;2.50;2.30;;;;;;;;;;4215359;28;20097;-34
2021/12/29 08:00:36;;;;;;;2.40;2.20;;;;;;;;;;4215720;28;20052;-33
2021/12/29 08:02:37;;;;;;;2.53;2.20;;;;;;;;;;4215448;28;20094;-34
2021/12/29 08:04:39;;;;;;;2.60;2.40;;;;;;;;;;4215228;28;20044;-35
2021/12/29 08:06:40;;;;;;;2.78;2.05;;;;;;;;;;4214835;28;20532;-34
2021/12/29 08:08:41;;;;;;;2.50;2.30;;;;;;;;;;4214817;28;20048;-34
2021/12/29 08:10:42;;;;;;;2.85;2.35;;;;;;;;;;4197247;28;20579;-34
2021/12/29 08:12:43;;;;;;;3.25;2.80;;;;;;;;;;4197288;28;20097;-34
2021/12/29 08:14:46;;;;;;;2.47;2.10;;;;;;;;;;4215013;28;20048;-33
2021/12/29 08:16:47;;;;;;;3.33;3.03;;;;;;;;;;4214136;28;20056;-34
2021/12/29 08:18:50;;;;;;;3.60;2.83;;;;;;;;;;4207734;28;20098;-34
2021/12/29 08:20:50;;;;;;;3.03;2.72;;;;;;;;;;4214239;28;20056;-34
2021/12/29 08:22:52;;;;;;;2.72;2.53;;;;;;;;;;4215123;28;20135;-34
2021/12/29 08:24:53;;;;;;;3.60;2.80;;;;;;;;;;4213005;28;20059;-34
2021/12/29 08:26:54;;;;;;;2.88;2.50;;;;;;;;;;4212783;28;20040;-35
2021/12/29 08:28:57;;;;;;;2.50;2.30;;;;;;;;;;4212885;28;20039;-34
2021/12/29 08:30:58;;;;;;;3.88;2.60;;;;;;;;;;4213054;28;20476;-36
2021/12/29 08:33:00;;;;;;;3.03;2.42;;;;;;;;;;4197857;28;20052;-34
2021/12/29 08:35:01;;;;;;;2.40;2.13;;;;;;;;;;4201914;28;20052;-34
2021/12/29 08:37:02;;;;;;;3.20;2.42;;;;;;;;;;4207890;28;20507;-35
2021/12/29 08:39:03;;;;;;;2.50;2.30;;;;;;;;;;4206751;28;20090;-35
2021/12/29 08:41:04;;;;;;;2.88;2.58;;;;;;;;;;4214524;28;20060;-35
2021/12/29 08:43:05;;;;;;;3.58;2.55;;;;;;;;;;4214094;28;20040;-36
2021/12/29 08:45:07;;;;;;;3.33;2.50;;;;;;;;;;4213364;28;20047;-35
2021/12/29 08:47:09;;;;;;;2.85;2.60;;;;;;;;;;4212808;28;20052;-34
2021/12/29 08:49:10;;;;;;;3.15;2.85;;;;;;;;;;4205484;28;20049;-38
2021/12/29 08:51:11;;;;;;;2.83;2.50;;;;;;;;;;4204054;28;20052;-34
2021/12/29 08:53:12;;;;;;;2.95;2.60;;;;;;;;;;4212864;28;20090;-35
2021/12/29 08:55:13;;;;;;;2.33;2.10;;;;;;;;;;4211770;28;20105;-35
2021/12/29 08:57:14;;;;;;;3.25;2.65;;;;;;;;;;4206681;28;20049;-34
2021/12/29 08:59:15;;;;;;;3.67;2.70;;;;;;;;;;4213734;28;20044;-35
2021/12/29 09:01:17;;;;;;;3.20;2.70;;;;;;;;;;4214074;28;20121;-34
2021/12/29 09:03:19;;;;;;;2.88;2.40;;;;;;;;;;4210256;28;20048;-34
2021/12/29 09:05:20;;;;;;;3.30;2.88;;;;;;;;;;4213584;28;20090;-35
2021/12/29 09:07:21;;;;;;;3.58;2.60;;;;;;;;;;4208877;28;20043;-34
2021/12/29 09:09:22;;;;;;;2.95;2.65;;;;;;;;;;4201198;28;20045;-34
2021/12/29 09:11:23;;;;;;;3.33;2.42;;;;;;;;;;4197520;28;20094;-34
2021/12/29 09:13:24;;;;;;;3.20;2.83;;;;;;;;;;4197407;28;20432;-35
2021/12/29 09:15:26;;;;;;;3.50;2.80;;;;;;;;;;4204950;28;20052;-35
2021/12/29 09:17:27;;;;;;;3.15;2.53;;;;;;;;;;4214132;28;20063;-34
2021/12/29 09:19:33;;;;;;;4.18;2.95;;;;;;;;;;4207381;28;20052;-34
2021/12/29 09:21:34;;;;;;;2.83;2.58;;;;;;;;;;4206635;28;20111;-34
2021/12/29 09:23:35;;;;;;;3.65;3.00;;;;;;;;;;4202830;28;20511;-34
2021/12/29 09:25:37;;;;;;;3.25;2.55;;;;;;;;;;4213299;28;20073;-34
2021/12/29 09:27:38;;;;;;;3.47;2.95;;;;;;;;;;4211613;28;20365;-35
2021/12/29 09:29:39;;;;;;;3.60;2.65;;;;;;;;;;4202520;28;20422;-34
2021/12/29 09:31:40;;;;;;;4.28;2.70;;;;;;;;;;4210718;28;20108;-34
2021/12/29 09:33:42;;;;;;;3.00;2.65;;;;;;;;;;4194145;28;20060;-35
2021/12/29 09:35:46;;;;;;;3.25;2.95;;;;;;;;;;4210505;28;20512;-35
2021/12/29 09:37:47;;;;;;;4.10;2.63;;;;;;;;;;4210108;28;20044;-34
2021/12/29 09:39:48;;;;;;;3.75;2.80;;;;;;;;;;4211311;28;20089;-35
2021/12/29 09:41:49;;;;;;;5.03;3.03;;;;;;;;;;4212900;28;20076;-34
2021/12/29 09:43:50;;;;;;;3.42;2.65;;;;;;;;;;4213197;28;20093;-35
2021/12/29 09:45:51;;;;;;;3.20;2.60;;;;;;;;;;4212978;28;20044;-35
2021/12/29 09:47:56;;;;;;;3.35;2.53;;;;;;;;;;4212120;28;20044;-34
2021/12/29 09:49:57;;;;;;;4.72;3.33;;;;;;;;;;4212714;28;20060;-35
2021/12/29 09:51:58;;;;;;;3.47;2.75;;;;;;;;;;4211440;28;20773;-34
2021/12/29 09:53:59;;;;;;;3.40;2.92;;;;;;;;;;4212971;28;20533;-35
2021/12/29 09:56:00;;;;;;;3.63;3.15;;;;;;;;;;4208890;28;20117;-35
2021/12/29 09:58:03;;;;;;;3.78;3.08;;;;;;;;;;4212948;28;20101;-34
2021/12/29 10:00:06;;;;;;;3.95;2.92;;;;;;;;;;4212868;28;20093;-34
2021/12/29 10:02:09;;;;;;;3.97;2.97;;;;;;;;;;4211118;28;20048;-34
2021/12/29 10:04:13;;;;;;;3.80;3.08;;;;;;;;;;4211047;28;20599;-34
2021/12/29 10:06:14;;;;;;;3.75;3.00;;;;;;;;;;4212418;28;20049;-35
2021/12/29 10:08:15;;;;;;;5.40;3.08;;;;;;;;;;4212256;28;20044;-34
2021/12/29 10:10:19;;;;;;;4.38;3.17;;;;;;;;;;4213031;28;20090;-35
2021/12/29 10:12:22;;;;;;;3.60;2.85;;;;;;;;;;4209632;28;20094;-35
2021/12/29 10:14:23;;;;;;;3.90;2.95;;;;;;;;;;4212626;28;20101;-34
2021/12/29 10:16:25;;;;;;;4.22;3.20;;;;;;;;;;4212833;28;20036;-35
2021/12/29 10:18:27;;;;;;;4.10;3.00;;;;;;;;;;4213313;28;20048;-34
2021/12/29 10:20:28;;;;;;;3.97;3.08;;;;;;;;;;4213057;28;20051;-33
2021/12/29 10:22:30;;;;;;;4.18;3.35;;;;;;;;;;4194414;28;20056;-34
2021/12/29 10:24:31;;;;;;;3.97;3.47;;;;;;;;;;4204965;28;20048;-34
2021/12/29 10:26:33;;;;;;;5.63;3.20;;;;;;;;;;4198053;28;20094;-33
2021/12/29 10:28:35;;;;;;;5.35;3.83;;;;;;;;;;4196552;28;20525;-34
2021/12/29 10:30:36;;;;;;;4.68;3.53;;;;;;;;;;4196175;28;20505;-34
2021/12/29 10:32:37;;;;;;;4.30;3.83;;;;;;;;;;4197236;28;20098;-35
2021/12/29 10:34:38;;;;;;;4.25;3.70;;;;;;;;;;4200672;28;20541;-34
2021/12/29 10:36:43;;;;;;;4.57;3.40;;;;;;;;;;4187577;28;20049;-35
2021/12/29 10:38:46;;;;;;;5.30;4.07;;;;;;;;;;4191149;28;20049;-35
2021/12/29 10:40:48;;;;;;;5.10;3.95;;;;;;;;;;4206944;28;20365;-35
2021/12/29 10:42:54;;;;;;;4.70;3.90;;;;;;;;;;4199863;28;20476;-35
2021/12/29 10:44:58;;;;;;;5.35;3.85;;;;;;;;;;4196214;28;20090;-35
2021/12/29 10:47:00;;;;;;;5.10;4.00;;;;;;;;;;4200044;28;20045;-35
2021/12/29 10:49:03;;;;;;;4.38;3.45;;;;;;;;;;4192023;28;20166;-35
2021/12/29 10:51:05;;;;;;;5.30;3.78;;;;;;;;;;4194948;28;20060;-36
2021/12/29 10:53:07;;;;;;;7.10;3.63;;;;;;;;;;4195058;28;20041;-36
2021/12/29 10:55:19;;;;;;;4.80;3.90;;;;;;;;;;4203382;28;20044;-36
2021/12/29 10:57:20;;;;;;;4.13;3.28;;;;;;;;;;4190998;28;20048;-35
2021/12/29 10:59:23;;;;;;;3.63;3.33;;;;;;;;;;4193420;28;20500;-35
2021/12/29 11:01:24;;;;;;;4.82;3.65;;;;;;;;;;4176549;28;20045;-35
2021/12/29 11:03:26;;;;;;;4.47;3.85;;;;;;;;;;4179781;28;20053;-36
2021/12/29 11:05:34;;;;;;;4.97;3.80;;;;;;;;;;4199005;28;20101;-36
2021/12/29 11:07:36;;;;;;;4.85;3.83;;;;;;;;;;4199071;28;20096;-36
2021/12/29 11:09:38;;;;;;;3.70;3.40;;;;;;;;;;4164982;28;20049;-33
2021/12/29 11:11:40;;;;;;;4.13;3.60;;;;;;;;;;4184283;28;20477;-36
2021/12/29 11:13:41;;;;;;;4.78;4.13;;;;;;;;;;4199389;28;20052;-35
2021/12/29 11:15:43;;;;;;;3.97;3.22;;;;;;;;;;4199017;28;20056;-36
2021/12/29 11:17:43;;;;;;;4.90;4.32;;;;;;;;;;4199220;28;20083;-36
2021/12/29 11:20:03;;;;;;;4.95;3.53;;;;;;;;;;4198528;28;20056;-36
2021/12/29 11:22:06;;;;;;;4.07;3.43;;;;;;;;;;4187981;28;20476;-36
2021/12/29 11:24:13;;;;;;;4.95;3.60;;;;;;;;;;4211572;28;20060;-36
2021/12/29 11:26:14;;;;;;;4.05;3.38;;;;;;;;;;4215616;28;20545;-36
2021/12/29 11:28:25;;;;;;;4.63;3.78;;;;;;;;;;4216034;28;20054;-35
2021/12/29 11:30:26;;;;;;;5.13;4.05;;;;;;;;;;4215946;28;20086;-36
2021/12/29 11:32:48;;;;;;;4.15;3.58;;;;;;;;;;4215849;28;20445;-35
2021/12/29 11:34:59;;;;;;;4.72;3.72;;;;;;;;;;4197978;28;20048;-36
2021/12/29 11:37:00;;;;;;;4.65;4.07;;;;;;;;;;4215649;28;20117;-36
2021/12/29 11:39:01;;;;;;;4.40;3.78;;;;;;;;;;4215895;28;20079;-36
2021/12/29 11:41:03;;;;;;;4.28;3.78;;;;;;;;;;4197896;28;20511;-35
2021/12/29 11:43:04;;;;;;;4.72;3.78;;;;;;;;;;4215806;28;20051;-36
2021/12/29 11:45:05;;;;;;;4.63;3.63;;;;;;;;;;4215827;28;20040;-33
2021/12/29 11:47:07;;;;;;;5.10;3.90;;;;;;;;;;4215794;28;20048;-35
2021/12/29 11:49:08;;;;;;;5.15;3.72;;;;;;;;;;4215716;28;20043;-36
2021/12/29 11:51:09;;;;;;;4.93;3.88;;;;;;;;;;4215449;28;20522;-36
2021/12/29 11:53:29;;;;;;;4.70;4.18;;;;;;;;;;4215236;28;20051;-35
2021/12/29 11:55:32;;;;;;;5.25;4.47;;;;;;;;;;4215643;28;20097;-35
2021/12/29 11:57:33;;;;;;;5.07;4.00;;;;;;;;;;4215296;28;20381;-36
2021/12/29 11:59:34;;;;;;;5.05;4.03;;;;;;;;;;4216139;28;20044;-36
2021/12/29 12:01:36;;;;;;;4.78;3.83;;;;;;;;;;4215609;28;20182;-35
2021/12/29 12:03:43;;;;;;;4.82;4.28;;;;;;;;;;4215219;28;20048;-36
2021/12/29 12:05:48;;;;;;;4.53;3.53;;;;;;;;;;4215346;28;20450;-35
2021/12/29 12:07:50;;;;;;;4.32;3.92;;;;;;;;;;4214937;28;20044;-35
2021/12/29 12:09:51;;;;;;;4.28;3.88;;;;;;;;;;4215504;28;20055;-36
2021/12/29 12:11:53;;;;;;;4.65;3.80;;;;;;;;;;4197077;28;20105;-35
2021/12/29 12:13:55;;;;;;;4.78;3.85;;;;;;;;;;4214386;28;20047;-35
2021/12/29 12:16:07;;;;;;;4.32;3.90;;;;;;;;;;4215009;28;20052;-35
2021/12/29 12:18:08;;;;;;;5.40;3.92;;;;;;;;;;4214957;28;20442;-36